Time;durP1;ratioP1;P1;durP2;ratioP2;P2;SDS_P1;SDS_P2;PMS_P1;PMS_P2;Temp;Humidity;BMP_temperature;BMP_pressure;BME280_temperature;BME280_humidity;BME280_pressure;Samples;Min_cycle;Max_cycle;Signal;HPM_P1;HPM_P2
2022/10/28 00:01:25;;;;;;;10.33;4.97;;;;;;;;;;5056572;28;20450;-64
2022/10/28 00:03:53;;;;;;;8.87;4.60;;;;;;;;;;5056143;28;20483;-64
2022/10/28 00:06:22;;;;;;;4.70;4.20;;;;;;;;;;5054502;28;20474;-63
2022/10/28 00:08:50;;;;;;;5.63;4.80;;;;;;;;;;5054933;28;20462;-65
2022/10/28 00:11:18;;;;;;;5.40;4.03;;;;;;;;;;5054251;28;20458;-64
2022/10/28 00:13:45;;;;;;;4.83;3.90;;;;;;;;;;5054462;28;20450;-64
2022/10/28 00:16:13;;;;;;;12.93;4.17;;;;;;;;;;5055907;28;20486;-65
2022/10/28 00:18:41;;;;;;;6.00;4.40;;;;;;;;;;5057268;28;20439;-62
2022/10/28 00:21:09;;;;;;;5.07;4.53;;;;;;;;;;5054409;28;20482;-65
2022/10/28 00:23:38;;;;;;;5.30;4.30;;;;;;;;;;5053641;28;20451;-63
2022/10/28 00:26:06;;;;;;;7.63;4.40;;;;;;;;;;5056125;28;20961;-63
2022/10/28 00:28:34;;;;;;;9.70;4.17;;;;;;;;;;5057720;28;20470;-63
2022/10/28 00:31:05;;;;;;;7.80;4.43;;;;;;;;;;5057395;28;20881;-64
2022/10/28 00:33:32;;;;;;;5.07;3.70;;;;;;;;;;5057701;28;20525;-64
2022/10/28 00:36:07;;;;;;;6.67;4.17;;;;;;;;;;5057432;28;20478;-65
2022/10/28 00:38:34;;;;;;;8.77;4.03;;;;;;;;;;5057060;28;20431;-64
2022/10/28 00:41:03;;;;;;;6.47;4.70;;;;;;;;;;5057178;28;20470;-65
2022/10/28 00:43:37;;;;;;;6.70;4.20;;;;;;;;;;5056812;28;20932;-65
2022/10/28 00:46:05;;;;;;;5.23;3.70;;;;;;;;;;5056685;28;20453;-64
2022/10/28 00:48:32;;;;;;;9.30;3.90;;;;;;;;;;5057547;28;20453;-64
2022/10/28 00:51:00;;;;;;;7.17;3.93;;;;;;;;;;5056860;28;20542;-65
2022/10/28 00:53:29;;;;;;;8.33;4.00;;;;;;;;;;5056638;28;20454;-64
2022/10/28 00:55:56;;;;;;;8.77;4.50;;;;;;;;;;5057980;28;20493;-64
2022/10/28 00:58:26;;;;;;;8.87;4.90;;;;;;;;;;5056882;28;20473;-64
2022/10/28 01:00:53;;;;;;;9.23;4.57;;;;;;;;;;5056610;28;20877;-65
2022/10/28 01:03:20;;;;;;;8.77;4.27;;;;;;;;;;5056456;28;20446;-64
2022/10/28 01:05:49;;;;;;;7.00;3.90;;;;;;;;;;5056674;28;20814;-64
2022/10/28 01:08:17;;;;;;;11.10;4.73;;;;;;;;;;5056231;28;21038;-64
2022/10/28 01:10:50;;;;;;;8.60;4.60;;;;;;;;;;5056955;28;20467;-64
2022/10/28 01:13:21;;;;;;;8.23;4.03;;;;;;;;;;5056589;28;20435;-64
2022/10/28 01:15:51;;;;;;;6.70;4.10;;;;;;;;;;5056398;28;20466;-64
2022/10/28 01:18:22;;;;;;;13.03;5.10;;;;;;;;;;5056228;28;20431;-63
2022/10/28 01:21:03;;;;;;;4.73;4.30;;;;;;;;;;5056112;28;20488;-64
2022/10/28 01:23:34;;;;;;;4.97;4.47;;;;;;;;;;5056294;28;20426;-64
2022/10/28 01:26:20;;;;;;;9.53;4.17;;;;;;;;;;5056058;28;20904;-64
2022/10/28 01:29:09;;;;;;;5.90;4.57;;;;;;;;;;5056435;28;20431;-63
2022/10/28 01:31:40;;;;;;;9.53;4.80;;;;;;;;;;5056106;28;20434;-64
2022/10/28 01:34:10;;;;;;;7.67;4.00;;;;;;;;;;5055966;28;20428;-64
2022/10/28 01:36:39;;;;;;;4.60;4.20;;;;;;;;;;5055153;28;20478;-64
2022/10/28 01:39:12;;;;;;;6.70;4.87;;;;;;;;;;5055038;28;20997;-64
2022/10/28 01:41:42;;;;;;;11.50;4.20;;;;;;;;;;5055799;28;20439;-62
2022/10/28 01:44:11;;;;;;;8.20;4.77;;;;;;;;;;5056071;28;20448;-65
2022/10/28 01:46:41;;;;;;;8.33;4.03;;;;;;;;;;5055829;28;20805;-64
2022/10/28 01:49:12;;;;;;;5.00;4.00;;;;;;;;;;5055731;28;20477;-66
2022/10/28 01:51:41;;;;;;;7.40;4.50;;;;;;;;;;5055658;28;20442;-64
2022/10/28 01:54:09;;;;;;;6.77;5.40;;;;;;;;;;5058117;28;20454;-66
2022/10/28 01:56:38;;;;;;;6.37;4.53;;;;;;;;;;5055509;28;20479;-66
2022/10/28 01:59:06;;;;;;;9.27;4.50;;;;;;;;;;5055129;28;21042;-66
2022/10/28 02:01:34;;;;;;;6.90;4.17;;;;;;;;;;5055442;28;20448;-66
2022/10/28 02:04:03;;;;;;;7.90;4.43;;;;;;;;;;5055375;28;20974;-66
2022/10/28 02:06:31;;;;;;;5.67;4.07;;;;;;;;;;5055469;28;20817;-66
2022/10/28 02:09:04;;;;;;;10.87;4.67;;;;;;;;;;5055507;28;20462;-65
2022/10/28 02:11:55;;;;;;;6.03;4.00;;;;;;;;;;5055367;28;20823;-66
2022/10/28 02:14:30;;;;;;;7.33;4.30;;;;;;;;;;5040388;28;20455;-65
2022/10/28 02:17:01;;;;;;;6.53;4.43;;;;;;;;;;5055080;28;20990;-66
2022/10/28 02:19:34;;;;;;;7.77;4.20;;;;;;;;;;5055503;28;20478;-66
2022/10/28 02:22:08;;;;;;;6.40;4.37;;;;;;;;;;5054945;28;20937;-67
2022/10/28 02:24:39;;;;;;;8.47;4.40;;;;;;;;;;5055967;28;20437;-67
2022/10/28 02:27:09;;;;;;;5.83;4.03;;;;;;;;;;5054891;28;20443;-66
2022/10/28 02:29:38;;;;;;;5.70;3.87;;;;;;;;;;5055016;28;20475;-66
2022/10/28 02:32:06;;;;;;;7.73;4.10;;;;;;;;;;5054954;28;20452;-66
2022/10/28 02:34:38;;;;;;;5.73;4.27;;;;;;;;;;5054617;28;20965;-66
2022/10/28 02:37:09;;;;;;;6.23;4.23;;;;;;;;;;5058386;28;20477;-65
2022/10/28 02:39:37;;;;;;;5.20;3.23;;;;;;;;;;5058015;28;20481;-65
2022/10/28 02:42:07;;;;;;;9.07;4.10;;;;;;;;;;5057226;28;20459;-65
2022/10/28 02:44:35;;;;;;;5.90;4.97;;;;;;;;;;5057002;28;20454;-66
2022/10/28 02:47:03;;;;;;;8.00;3.90;;;;;;;;;;5056573;28;20442;-66
2022/10/28 02:49:32;;;;;;;5.43;4.00;;;;;;;;;;5054212;28;20464;-66
2022/10/28 02:52:02;;;;;;;6.20;3.60;;;;;;;;;;5055209;28;20442;-65
2022/10/28 02:54:31;;;;;;;8.97;4.10;;;;;;;;;;5054982;28;20423;-66
2022/10/28 02:57:01;;;;;;;5.57;3.67;;;;;;;;;;5054414;28;20483;-66
2022/10/28 02:59:29;;;;;;;5.30;3.40;;;;;;;;;;5055084;28;20478;-65
2022/10/28 03:01:56;;;;;;;6.70;4.10;;;;;;;;;;5055336;28;20453;-65
2022/10/28 03:04:23;;;;;;;5.20;3.93;;;;;;;;;;5054750;28;20451;-66
2022/10/28 03:06:50;;;;;;;6.03;4.30;;;;;;;;;;5054492;28;20446;-67
2022/10/28 03:09:19;;;;;;;6.90;4.60;;;;;;;;;;5054497;28;20593;-66
2022/10/28 03:11:46;;;;;;;8.00;4.50;;;;;;;;;;5054057;28;20446;-66
2022/10/28 03:14:13;;;;;;;5.53;3.87;;;;;;;;;;5053891;28;20458;-65
2022/10/28 03:16:40;;;;;;;8.43;4.50;;;;;;;;;;5053965;28;20489;-66
2022/10/28 03:19:07;;;;;;;7.40;4.73;;;;;;;;;;5053801;28;20802;-67
2022/10/28 03:21:34;;;;;;;8.93;4.70;;;;;;;;;;5053902;28;20447;-66
2022/10/28 03:24:01;;;;;;;9.20;4.17;;;;;;;;;;5053950;28;20797;-63
2022/10/28 03:26:29;;;;;;;6.77;4.23;;;;;;;;;;5053590;28;20446;-66
2022/10/28 03:28:56;;;;;;;7.23;3.70;;;;;;;;;;5053470;28;20937;-65
2022/10/28 03:31:23;;;;;;;5.60;4.00;;;;;;;;;;5053800;28;20457;-66
2022/10/28 03:33:50;;;;;;;9.67;6.60;;;;;;;;;;5053710;28;20462;-67
2022/10/28 03:36:17;;;;;;;7.73;4.10;;;;;;;;;;5053682;28;20557;-66
2022/10/28 03:38:44;;;;;;;6.90;3.67;;;;;;;;;;5053449;28;20462;-66
2022/10/28 03:41:11;;;;;;;8.47;3.90;;;;;;;;;;5054021;28;20461;-67
2022/10/28 03:43:40;;;;;;;5.60;3.80;;;;;;;;;;5053551;28;20446;-67
2022/10/28 03:46:07;;;;;;;4.57;3.60;;;;;;;;;;5053630;28;20533;-66
2022/10/28 03:48:34;;;;;;;4.77;4.27;;;;;;;;;;5053722;28;20443;-65
2022/10/28 03:51:01;;;;;;;5.50;3.90;;;;;;;;;;5054216;28;20477;-65
2022/10/28 03:53:28;;;;;;;4.57;4.17;;;;;;;;;;5053533;28;20454;-67
2022/10/28 03:55:56;;;;;;;7.53;4.33;;;;;;;;;;5053308;28;20482;-64
2022/10/28 03:58:23;;;;;;;4.40;3.60;;;;;;;;;;5053403;28;20449;-66
2022/10/28 04:00:51;;;;;;;7.10;4.20;;;;;;;;;;5052975;28;20474;-65
2022/10/28 04:03:19;;;;;;;5.97;4.60;;;;;;;;;;5054081;28;20444;-66
2022/10/28 04:05:47;;;;;;;12.00;4.40;;;;;;;;;;5053433;28;20443;-65
2022/10/28 04:10:27;;;;;;;7.07;4.03;;;15.30;99.90;;;;;;5090711;28;20559;-65
2022/10/28 04:12:58;;;;;;;6.83;4.10;;;15.20;99.90;;;;;;5090822;28;20440;-66
2022/10/28 04:15:25;;;;;;;5.33;4.10;;;15.20;99.90;;;;;;5090637;28;20425;-66
2022/10/28 04:17:52;;;;;;;9.37;4.30;;;15.30;99.90;;;;;;5090486;28;20433;-65
2022/10/28 04:20:19;;;;;;;6.53;4.50;;;15.30;99.90;;;;;;5090681;28;20465;-66
2022/10/28 04:22:45;;;;;;;5.87;4.33;;;15.40;99.90;;;;;;5090737;28;20455;-65
2022/10/28 04:25:13;;;;;;;7.90;3.77;;;15.40;99.90;;;;;;5090895;28;20440;-67
2022/10/28 04:27:41;;;;;;;8.60;4.07;;;15.50;99.90;;;;;;5091067;28;20440;-66
2022/10/28 04:30:11;;;;;;;4.27;3.67;;;15.50;99.90;;;;;;5091633;28;20492;-66
2022/10/28 04:32:37;;;;;;;4.07;3.70;;;15.50;99.90;;;;;;5101230;28;20453;-64
2022/10/28 04:35:05;;;;;;;4.97;3.87;;;15.50;99.90;;;;;;5102014;28;20444;-66
2022/10/28 04:37:32;;;;;;;5.60;4.80;;;15.50;99.90;;;;;;5100961;28;20444;-66
2022/10/28 04:39:59;;;;;;;6.47;3.80;;;15.50;99.90;;;;;;5095770;28;20991;-66
2022/10/28 04:42:25;;;;;;;5.40;3.80;;;15.50;99.90;;;;;;5093527;28;20441;-65
2022/10/28 04:44:53;;;;;;;6.40;4.77;;;15.50;99.90;;;;;;5093619;28;20444;-66
2022/10/28 04:47:20;;;;;;;5.87;4.20;;;15.50;99.90;;;;;;5092565;28;20441;-67
2022/10/28 04:49:47;;;;;;;6.20;4.20;;;15.50;99.90;;;;;;5091795;28;20489;-65
2022/10/28 04:52:14;;;;;;;6.13;4.20;;;15.50;99.90;;;;;;5091008;28;20444;-68
2022/10/28 04:54:40;;;;;;;8.80;3.90;;;15.50;99.90;;;;;;5090637;28;20452;-66
2022/10/28 04:57:07;;;;;;;7.50;4.57;;;15.60;99.90;;;;;;5094888;28;20453;-67
2022/10/28 04:59:34;;;;;;;4.93;3.73;;;15.60;99.90;;;;;;5100017;28;20461;-66
2022/10/28 05:02:02;;;;;;;6.63;4.27;;;15.60;99.90;;;;;;5103187;28;20448;-67
2022/10/28 05:04:29;;;;;;;8.20;3.80;;;15.70;99.90;;;;;;5101162;28;20444;-66
2022/10/28 05:06:55;;;;;;;8.00;3.90;;;15.70;99.90;;;;;;5098124;28;20447;-66
2022/10/28 05:09:22;;;;;;;6.67;4.00;;;15.70;99.90;;;;;;5091618;28;20868;-66
2022/10/28 05:11:49;;;;;;;7.30;4.20;;;15.70;99.90;;;;;;5092350;28;20445;-65
2022/10/28 05:14:16;;;;;;;7.17;3.67;;;15.70;99.90;;;;;;5092703;28;20456;-66
2022/10/28 05:16:42;;;;;;;7.23;4.47;;;15.60;99.90;;;;;;5092371;28;20446;-66
2022/10/28 05:19:10;;;;;;;11.30;3.63;;;15.60;99.90;;;;;;5091657;28;20463;-67
2022/10/28 05:21:37;;;;;;;4.70;4.17;;;15.50;99.90;;;;;;5080772;28;20449;-65
2022/10/28 05:24:05;;;;;;;6.13;4.50;;;15.50;99.90;;;;;;5078614;28;20452;-66
2022/10/28 05:26:31;;;;;;;8.10;5.70;;;15.50;99.90;;;;;;5077949;28;20457;-66
2022/10/28 05:28:58;;;;;;;6.47;4.30;;;15.50;99.90;;;;;;5078806;28;20853;-65
2022/10/28 05:31:25;;;;;;;9.87;4.57;;;15.40;99.90;;;;;;5081527;28;20457;-67
2022/10/28 05:33:51;;;;;;;8.90;4.50;;;15.40;99.90;;;;;;5081213;28;20959;-66
2022/10/28 05:36:19;;;;;;;11.53;4.23;;;15.30;99.90;;;;;;5082676;28;20441;-66
2022/10/28 05:38:46;;;;;;;7.70;3.73;;;15.30;99.90;;;;;;5080796;28;20464;-66
2022/10/28 05:41:13;;;;;;;11.13;4.67;;;15.20;99.90;;;;;;5072058;28;20442;-64
2022/10/28 05:43:40;;;;;;;9.00;5.23;;;15.10;99.90;;;;;;5072411;28;20451;-65
2022/10/28 05:46:06;;;;;;;8.90;4.30;;;15.00;99.90;;;;;;5064180;28;20446;-66
2022/10/28 05:48:33;;;;;;;8.67;4.30;;;15.00;99.90;;;;;;5077256;28;20453;-66
2022/10/28 05:51:00;;;;;;;13.60;5.97;;;15.00;99.90;;;;;;5077583;28;20501;-66
2022/10/28 05:53:28;;;;;;;6.57;4.50;;;15.00;99.90;;;;;;5078997;28;20452;-66
2022/10/28 05:55:54;;;;;;;6.90;4.37;;;14.90;99.90;;;;;;5073706;28;20446;-65
2022/10/28 05:58:21;;;;;;;11.20;5.80;;;14.90;99.90;;;;;;5066964;28;20453;-66
2022/10/28 06:00:48;;;;;;;8.10;4.00;;;14.90;99.90;;;;;;5068571;28;20462;-65
2022/10/28 06:03:14;;;;;;;5.83;4.27;;;15.00;99.90;;;;;;5074847;28;20469;-66
2022/10/28 06:05:44;;;;;;;5.40;3.90;;;15.00;99.90;;;;;;5074655;28;20446;-66
2022/10/28 06:08:12;;;;;;;5.97;4.60;;;15.00;99.90;;;;;;5069957;28;20538;-65
2022/10/28 06:10:41;;;;;;;7.37;4.30;;;15.00;99.90;;;;;;5056711;28;20854;-65
2022/10/28 06:13:08;;;;;;;7.03;4.27;;;15.10;99.90;;;;;;5056887;28;20453;-65
2022/10/28 06:15:35;;;;;;;6.00;4.03;;;15.10;99.90;;;;;;5071803;28;20445;-65
2022/10/28 06:18:02;;;;;;;9.80;5.40;;;15.10;99.90;;;;;;5074971;28;20819;-65
2022/10/28 06:20:28;;;;;;;5.83;3.80;;;15.20;99.90;;;;;;5074595;28;20974;-65
2022/10/28 06:22:56;;;;;;;8.80;4.80;;;15.20;99.90;;;;;;5075586;28;20449;-66
2022/10/28 06:25:25;;;;;;;13.83;5.10;;;15.20;99.90;;;;;;5066022;28;20446;-65
2022/10/28 06:27:54;;;;;;;5.37;4.30;;;15.30;99.90;;;;;;5071600;28;20798;-66
2022/10/28 06:30:21;;;;;;;10.27;4.77;;;15.30;99.90;;;;;;5075790;28;20481;-67
2022/10/28 06:32:48;;;;;;;7.17;4.53;;;15.30;99.90;;;;;;5075453;28;20461;-65
2022/10/28 06:35:15;;;;;;;10.70;4.23;;;15.30;99.90;;;;;;5077179;28;20960;-65
2022/10/28 06:37:41;;;;;;;6.73;4.83;;;15.40;99.90;;;;;;5074848;28;20458;-66
2022/10/28 06:40:09;;;;;;;14.10;4.80;;;15.40;99.90;;;;;;5066721;28;20465;-64
2022/10/28 06:42:36;;;;;;;15.53;5.43;;;15.50;99.90;;;;;;5075910;28;20450;-67
2022/10/28 06:45:05;;;;;;;7.83;3.67;;;15.50;99.90;;;;;;5077367;28;20445;-65
2022/10/28 06:47:32;;;;;;;6.33;3.67;;;15.70;99.90;;;;;;5077741;28;20452;-65
2022/10/28 06:49:58;;;;;;;9.30;4.67;;;15.80;99.90;;;;;;5078275;28;20493;-66
2022/10/28 06:52:25;;;;;;;7.63;3.97;;;15.90;99.90;;;;;;5074036;28;20459;-66
2022/10/28 06:54:52;;;;;;;8.20;3.63;;;16.00;99.90;;;;;;5055591;28;20458;-66
2022/10/28 06:57:18;;;;;;;9.53;4.47;;;16.00;99.90;;;;;;5056717;28;20450;-64
2022/10/28 06:59:45;;;;;;;4.87;3.70;;;16.20;99.90;;;;;;5054404;28;20459;-65
2022/10/28 07:02:14;;;;;;;9.37;4.10;;;16.20;99.90;;;;;;5054404;28;20523;-64
2022/10/28 07:04:41;;;;;;;8.73;3.90;;;16.30;99.90;;;;;;5063271;28;20440;-64
2022/10/28 07:07:08;;;;;;;6.93;4.00;;;16.40;99.90;;;;;;5062322;28;20443;-64
2022/10/28 07:09:38;;;;;;;6.70;3.50;;;16.50;99.90;;;;;;5055680;28;20491;-63
2022/10/28 07:12:05;;;;;;;6.53;4.00;;;16.50;99.90;;;;;;5054391;28;20834;-63
2022/10/28 07:14:33;;;;;;;8.20;3.43;;;16.50;99.90;;;;;;5054510;28;20443;-64
2022/10/28 07:17:00;;;;;;;7.23;3.90;;;16.50;99.90;;;;;;5053911;28;20525;-64
2022/10/28 07:19:28;;;;;;;6.50;4.30;;;16.50;99.90;;;;;;5054050;28;20839;-64
2022/10/28 07:21:54;;;;;;;6.27;4.33;;;16.50;99.90;;;;;;5054604;28;20451;-64
2022/10/28 07:24:21;;;;;;;11.00;4.60;;;16.50;99.90;;;;;;5054353;28;20455;-64
2022/10/28 07:26:48;;;;;;;5.47;4.53;;;16.50;99.90;;;;;;5054161;28;20816;-63
2022/10/28 07:29:15;;;;;;;9.50;5.33;;;16.60;99.90;;;;;;5054093;28;20874;-63
2022/10/28 07:31:42;;;;;;;9.27;4.90;;;16.60;99.90;;;;;;5053948;28;20448;-63
2022/10/28 07:34:09;;;;;;;6.70;4.73;;;16.80;99.90;;;;;;5053710;28;20448;-64
2022/10/28 07:36:37;;;;;;;6.57;4.03;;;16.90;99.90;;;;;;5053870;28;20971;-64
2022/10/28 07:39:04;;;;;;;6.63;4.60;;;17.00;99.90;;;;;;5052219;28;20547;-64
2022/10/28 07:41:30;;;;;;;7.83;4.83;;;17.10;99.90;;;;;;5053961;28;20448;-64
2022/10/28 07:43:57;;;;;;;9.33;4.00;;;17.10;99.90;;;;;;5053377;28;20438;-64
2022/10/28 07:46:24;;;;;;;5.47;3.53;;;17.20;99.90;;;;;;5053800;28;20496;-64
2022/10/28 07:48:51;;;;;;;7.40;4.17;;;17.20;99.90;;;;;;5054727;28;20444;-63
2022/10/28 07:51:17;;;;;;;8.90;4.10;;;17.30;99.90;;;;;;5054101;28;20487;-63
2022/10/28 07:53:45;;;;;;;8.97;4.90;;;17.40;99.90;;;;;;5053586;28;20948;-64
2022/10/28 07:56:13;;;;;;;8.80;3.80;;;17.50;99.90;;;;;;5054645;28;20448;-63
2022/10/28 07:58:40;;;;;;;7.00;3.40;;;17.70;99.90;;;;;;5056153;28;20455;-64
2022/10/28 08:01:09;;;;;;;6.87;4.20;;;17.90;99.90;;;;;;5053774;28;20465;-64
2022/10/28 08:03:36;;;;;;;6.43;4.00;;;18.10;99.90;;;;;;5053879;28;20449;-64
2022/10/28 08:06:05;;;;;;;8.20;3.70;;;18.40;99.90;;;;;;5053333;28;20458;-65
2022/10/28 08:08:31;;;;;;;8.80;3.97;;;18.60;99.90;;;;;;5053790;28;20457;-64
2022/10/28 08:11:07;;;;;;;7.80;3.93;;;18.80;99.90;;;;;;5053575;28;20493;-64
2022/10/28 08:13:34;;;;;;;7.27;3.80;;;19.00;99.90;;;;;;5054412;28;20440;-65
2022/10/28 08:16:01;;;;;;;9.40;3.97;;;19.20;99.90;;;;;;5053555;28;20441;-64
2022/10/28 08:18:27;;;;;;;7.50;4.17;;;19.30;99.90;;;;;;5053755;28;20453;-64
2022/10/28 08:20:54;;;;;;;11.10;3.80;;;19.30;99.90;;;;;;5053758;28;20461;-63
2022/10/28 08:23:21;;;;;;;6.97;3.60;;;19.30;99.90;;;;;;5053995;28;20450;-63
2022/10/28 08:25:49;;;;;;;6.00;4.63;;;19.40;99.90;;;;;;5053624;28;20504;-63
2022/10/28 08:28:17;;;;;;;7.43;3.73;;;19.40;99.90;;;;;;5054124;28;20908;-64
2022/10/28 08:30:44;;;;;;;8.40;4.00;;;19.30;99.90;;;;;;5053974;28;20489;-63
2022/10/28 08:33:12;;;;;;;5.93;3.47;;;19.30;99.90;;;;;;5053695;28;20913;-63
2022/10/28 08:35:38;;;;;;;9.30;3.60;;;19.20;99.90;;;;;;5053975;28;20457;-63
2022/10/28 08:38:06;;;;;;;7.97;4.47;;;19.20;99.90;;;;;;5054568;28;20441;-63
2022/10/28 08:40:39;;;;;;;5.87;3.83;;;19.20;99.90;;;;;;5053235;28;20823;-63
2022/10/28 08:43:18;;;;;;;3.93;3.27;;;19.30;99.90;;;;;;5052990;28;20430;-63
2022/10/28 08:45:53;;;;;;;5.00;3.60;;;19.20;99.90;;;;;;5052353;28;20921;-63
2022/10/28 08:48:28;;;;;;;7.20;3.43;;;19.20;99.90;;;;;;5053247;28;20435;-63
2022/10/28 08:50:59;;;;;;;10.53;3.80;;;19.20;99.90;;;;;;5052213;28;20480;-62
2022/10/28 08:53:32;;;;;;;10.30;4.23;;;19.20;99.90;;;;;;5053538;28;20434;-62
2022/10/28 08:56:07;;;;;;;6.77;3.30;;;19.20;99.90;;;;;;5055015;28;20789;-64
2022/10/28 08:58:36;;;;;;;7.87;3.67;;;19.20;99.90;;;;;;5056960;28;20430;-63
2022/10/28 09:01:08;;;;;;;7.30;3.50;;;19.10;99.90;;;;;;5056880;28;20469;-64
2022/10/28 09:03:38;;;;;;;7.20;3.90;;;19.10;99.90;;;;;;5057494;28;20453;-63
2022/10/28 09:06:07;;;;;;;10.20;4.50;;;19.10;99.90;;;;;;5057630;28;20437;-64
2022/10/28 09:08:37;;;;;;;6.57;3.27;;;19.20;99.90;;;;;;5056679;28;20450;-63
2022/10/28 09:11:30;;;;;;;8.87;3.70;;;19.20;99.90;;;;;;5056232;28;20485;-63
2022/10/28 09:14:10;;;;;;;8.80;3.27;;;19.40;99.90;;;;;;5057079;28;20430;-62
2022/10/28 09:16:46;;;;;;;13.90;3.70;;;19.60;99.90;;;;;;5056695;28;20425;-62
2022/10/28 09:19:30;;;;;;;5.90;2.80;;;19.60;99.70;;;;;;5057467;28;20468;-64
2022/10/28 09:22:08;;;;;;;6.23;3.87;;;19.70;99.30;;;;;;5057125;28;20428;-64
2022/10/28 09:24:45;;;;;;;5.70;3.10;;;19.90;98.80;;;;;;5068769;28;20430;-64
2022/10/28 09:27:21;;;;;;;6.47;3.33;;;19.90;98.20;;;;;;5064672;28;20430;-64
2022/10/28 09:29:58;;;;;;;8.73;3.90;;;20.10;97.70;;;;;;5058957;28;20470;-63
2022/10/28 09:32:37;;;;;;;6.60;3.77;;;20.10;97.30;;;;;;5057277;28;20429;-63
2022/10/28 09:35:08;;;;;;;10.60;4.03;;;20.30;96.80;;;;;;5058207;28;20438;-64
2022/10/28 09:37:38;;;;;;;4.50;2.90;;;20.40;96.20;;;;;;5059294;28;20426;-63
2022/10/28 09:40:14;;;;;;;6.80;3.80;;;20.50;95.70;;;;;;5060238;28;20466;-65
2022/10/28 09:42:46;;;;;;;6.80;3.40;;;20.60;95.10;;;;;;5060949;28;20656;-65
2022/10/28 09:45:17;;;;;;;7.80;3.20;;;20.70;94.60;;;;;;5058968;28;20467;-63
2022/10/28 09:47:54;;;;;;;9.93;3.53;;;20.80;94.20;;;;;;5059404;28;20433;-64
2022/10/28 09:50:24;;;;;;;8.30;3.33;;;20.80;93.80;;;;;;5058899;28;20985;-63
2022/10/28 09:52:59;;;;;;;9.60;3.80;;;21.00;93.40;;;;;;5058473;28;20508;-62
2022/10/28 09:55:25;;;;;;;6.80;3.50;;;21.10;93.00;;;;;;5057980;28;20433;-63
2022/10/28 09:57:52;;;;;;;7.70;3.57;;;21.20;92.60;;;;;;5056767;28;20539;-63
2022/10/28 10:00:19;;;;;;;10.10;3.33;;;21.30;92.30;;;;;;5056346;28;20474;-63
2022/10/28 10:02:49;;;;;;;5.27;3.07;;;21.40;91.90;;;;;;5056984;28;20450;-63
2022/10/28 10:05:18;;;;;;;6.53;3.40;;;21.50;91.60;;;;;;5057937;28;20451;-61
2022/10/28 10:07:50;;;;;;;8.27;3.40;;;21.60;91.20;;;;;;5057804;28;20451;-63
2022/10/28 10:10:23;;;;;;;7.13;3.30;;;21.70;90.70;;;;;;5057774;28;20491;-64
2022/10/28 10:12:51;;;;;;;14.17;3.10;;;21.80;90.30;;;;;;5057996;28;20795;-62
2022/10/28 10:15:26;;;;;;;10.40;3.43;;;21.90;89.80;;;;;;5056716;28;20449;-63
2022/10/28 10:17:57;;;;;;;4.83;3.37;;;22.00;88.50;;;;;;5055984;28;20435;-63
2022/10/28 10:20:24;;;;;;;9.47;3.53;;;22.10;87.30;;;;;;5056378;28;20544;-64
2022/10/28 10:22:51;;;;;;;5.50;2.93;;;22.20;86.00;;;;;;5055974;28;20496;-64
2022/10/28 10:25:28;;;;;;;7.30;3.20;;;22.30;84.80;;;;;;5055924;28;20448;-64
2022/10/28 10:27:59;;;;;;;6.03;3.70;;;22.40;82.90;;;;;;5055264;28;20460;-63
2022/10/28 10:30:30;;;;;;;7.07;3.40;;;22.50;81.80;;;;;;5055334;28;20488;-63
2022/10/28 10:32:58;;;;;;;10.50;3.60;;;22.60;80.70;;;;;;5054888;28;20776;-63
2022/10/28 10:35:28;;;;;;;10.57;3.40;;;22.70;79.50;;;;;;5055066;28;20448;-62
2022/10/28 10:37:57;;;;;;;8.50;2.73;;;22.80;78.60;;;;;;5054837;28;20444;-64
2022/10/28 10:40:26;;;;;;;7.93;3.70;;;22.80;77.60;;;;;;5055018;28;20479;-63
2022/10/28 10:42:53;;;;;;;5.97;3.10;;;22.90;76.80;;;;;;5054616;28;20453;-63
2022/10/28 10:45:23;;;;;;;5.97;3.43;;;23.00;76.10;;;;;;5055144;28;20448;-63
2022/10/28 10:48:17;;;;;;;5.40;3.20;;;23.10;75.40;;;;;;5055244;28;20447;-64
2022/10/28 10:50:46;;;;;;;9.17;3.60;;;23.10;74.70;;;;;;5054691;28;20481;-62
2022/10/28 10:53:23;;;;;;;9.70;3.47;;;23.20;73.90;;;;;;5054356;28;20452;-64
2022/10/28 10:55:53;;;;;;;6.60;2.80;;;23.10;73.40;;;;;;5055139;28;20433;-64
2022/10/28 10:58:23;;;;;;;4.23;3.40;;;23.20;73.30;;;;;;5055467;28;20820;-63
2022/10/28 11:00:52;;;;;;;8.60;3.27;;;23.20;73.10;;;;;;5054786;28;20960;-63
2022/10/28 11:03:24;;;;;;;10.23;3.37;;;23.20;72.70;;;;;;5054308;28;20923;-63
2022/10/28 11:05:54;;;;;;;7.50;3.30;;;23.20;72.60;;;;;;5054692;28;20932;-63
2022/10/28 11:08:37;;;;;;;8.60;3.10;;;23.20;72.70;;;;;;5054669;28;20817;-64
2022/10/28 11:11:11;;;;;;;6.93;3.57;;;23.20;72.80;;;;;;5053032;28;20484;-60
2022/10/28 11:13:39;;;;;;;4.70;3.10;;;23.20;72.80;;;;;;5054404;28;20432;-62
2022/10/28 11:16:16;;;;;;;10.77;3.53;;;23.20;73.00;;;;;;5054577;28;20447;-64
2022/10/28 11:18:47;;;;;;;11.13;3.13;;;23.20;73.00;;;;;;5054361;28;20793;-62
2022/10/28 11:21:32;;;;;;;12.13;5.00;;;23.30;72.80;;;;;;5053979;28;20517;-64
2022/10/28 11:24:10;;;;;;;8.43;3.43;;;23.30;72.40;;;;;;5053750;28;20908;-63
2022/10/28 11:26:44;;;;;;;7.77;3.43;;;23.40;72.10;;;;;;5053834;28;20939;-62
2022/10/28 11:29:13;;;;;;;9.90;3.67;;;23.40;72.60;;;;;;5057357;28;20456;-60
2022/10/28 11:32:02;;;;;;;9.53;3.83;;;23.50;71.80;;;;;;5058049;28;20477;-62
2022/10/28 11:34:54;;;;;;;8.03;3.00;;;23.60;71.50;;;;;;5057109;28;20429;-62
2022/10/28 11:37:31;;;;;;;7.40;3.30;;;23.70;71.20;;;;;;5059546;28;20983;-64
2022/10/28 11:40:09;;;;;;;8.97;3.50;;;23.70;70.90;;;;;;5056864;28;20499;-62
2022/10/28 11:42:45;;;;;;;7.63;3.33;;;23.80;70.70;;;;;;5056087;28;20432;-61
2022/10/28 11:45:21;;;;;;;8.77;3.73;;;23.90;70.20;;;;;;5059298;28;20432;-62
2022/10/28 11:48:01;;;;;;;7.10;3.80;;;23.90;69.50;;;;;;5057554;28;20434;-63
2022/10/28 11:50:41;;;;;;;7.27;3.30;;;23.90;69.10;;;;;;5061150;28;20472;-62
2022/10/28 11:53:29;;;;;;;4.40;3.00;;;24.00;69.10;;;;;;5062130;28;20421;-63
2022/10/28 11:56:03;;;;;;;6.30;3.20;;;24.10;68.50;;;;;;5060187;28;20433;-63
2022/10/28 11:58:39;;;;;;;6.23;2.70;;;24.10;67.80;;;;;;5059248;28;20804;-63
2022/10/28 12:01:31;;;;;;;7.73;3.57;;;24.20;67.40;;;;;;5057392;28;20471;-63
2022/10/28 12:04:20;;;;;;;7.17;3.33;;;24.20;67.10;;;;;;5056422;28;20424;-64
2022/10/28 12:07:15;;;;;;;7.57;3.43;;;24.30;66.90;;;;;;5053264;28;20433;-63
2022/10/28 12:09:53;;;;;;;5.93;3.03;;;24.40;66.70;;;;;;5053069;28;20480;-66
2022/10/28 12:12:27;;;;;;;8.73;3.30;;;24.50;66.70;;;;;;5053544;28;20569;-63
2022/10/28 12:15:01;;;;;;;4.50;3.00;;;24.60;66.60;;;;;;5053343;28;20428;-64
2022/10/28 12:17:37;;;;;;;8.23;4.03;;;24.50;66.50;;;;;;5053109;28;20443;-64
2022/10/28 12:20:11;;;;;;;7.83;2.90;;;24.50;66.70;;;;;;5053231;28;20464;-64
2022/10/28 12:22:46;;;;;;;10.70;3.90;;;24.60;66.60;;;;;;5053890;28;20448;-62
2022/10/28 12:25:17;;;;;;;9.87;4.07;;;24.50;66.10;;;;;;5053246;28;20791;-65
2022/10/28 12:27:49;;;;;;;9.20;3.10;;;24.50;66.10;;;;;;5053631;28;20433;-64
2022/10/28 12:30:20;;;;;;;10.10;4.23;;;24.40;66.00;;;;;;5056012;28;20482;-65
2022/10/28 12:32:49;;;;;;;6.57;3.47;;;24.40;66.10;;;;;;5062668;28;20464;-65
2022/10/28 12:35:21;;;;;;;6.83;2.97;;;24.40;66.10;;;;;;5061944;28;20455;-64
2022/10/28 12:37:54;;;;;;;6.00;3.20;;;24.40;66.20;;;;;;5064717;28;20448;-64
2022/10/28 12:40:24;;;;;;;9.53;2.93;;;24.30;66.30;;;;;;5065870;28;20475;-64
2022/10/28 12:42:55;;;;;;;7.37;3.33;;;24.20;66.20;;;;;;5062061;28;20479;-65
2022/10/28 12:45:23;;;;;;;6.87;3.00;;;24.20;66.30;;;;;;5058149;28;20424;-64
2022/10/28 12:47:55;;;;;;;12.60;4.20;;;24.20;66.40;;;;;;5058147;28;20452;-64
2022/10/28 12:50:27;;;;;;;7.30;2.90;;;24.20;66.40;;;;;;5059189;28;20933;-65
2022/10/28 12:53:02;;;;;;;8.93;4.23;;;24.20;66.40;;;;;;5059027;28;20469;-63
2022/10/28 12:55:34;;;;;;;6.90;3.47;;;24.20;66.30;;;;;;5058532;28;20432;-63
2022/10/28 12:58:05;;;;;;;6.50;3.47;;;24.30;66.50;;;;;;5059689;28;20920;-64
2022/10/28 13:00:36;;;;;;;9.50;4.03;;;24.30;66.50;;;;;;5061432;28;20474;-65
2022/10/28 13:03:06;;;;;;;5.80;2.80;;;24.20;66.50;;;;;;5060292;28;20432;-63
2022/10/28 13:05:39;;;;;;;10.93;4.43;;;24.20;66.50;;;;;;5058324;28;20448;-64
2022/10/28 13:08:43;;;;;;;11.87;3.07;;;24.20;66.80;;;;;;5057088;28;20436;-64
2022/10/28 13:11:36;;;;;;;7.10;3.40;;;24.20;66.80;;;;;;5059183;28;20987;-64
2022/10/28 13:14:10;;;;;;;9.80;3.90;;;24.10;66.80;;;;;;5057296;28;20447;-62
2022/10/28 13:16:53;;;;;;;11.87;3.70;;;24.10;66.90;;;;;;5056823;28;20443;-64
2022/10/28 13:19:36;;;;;;;6.90;3.00;;;24.10;67.20;;;;;;5056600;28;20464;-63
2022/10/28 13:22:20;;;;;;;11.17;3.77;;;24.10;67.50;;;;;;5056658;28;20425;-65
2022/10/28 13:24:58;;;;;;;5.33;2.90;;;24.00;67.80;;;;;;5056473;28;20436;-65
2022/10/28 13:27:25;;;;;;;8.13;3.50;;;24.00;68.10;;;;;;5056810;28;20431;-65
2022/10/28 13:29:55;;;;;;;5.50;3.30;;;23.90;68.20;;;;;;5059596;28;20468;-64
2022/10/28 13:32:35;;;;;;;11.33;4.43;;;23.90;68.50;;;;;;5062645;28;20472;-65
2022/10/28 13:35:11;;;;;;;9.60;5.63;;;23.80;68.60;;;;;;5060891;28;20785;-65
2022/10/28 13:37:39;;;;;;;6.67;3.33;;;23.80;68.70;;;;;;5061408;28;20919;-64